createdAt,value
2018-06-03T00:00:08.495Z,40.33
2018-06-03T00:02:37.701Z,40.87
2018-06-03T00:05:06.915Z,40.83
2018-06-03T00:07:36.093Z,42.40
2018-06-03T00:10:05.481Z,43.00
2018-06-03T00:12:34.661Z,40.33
2018-06-03T00:15:03.967Z,42.33
2018-06-03T00:17:33.205Z,46.57
2018-06-03T00:20:02.365Z,45.20
2018-06-03T00:22:32.817Z,46.50
2018-06-03T00:25:02.078Z,42.97
2018-06-03T00:27:31.225Z,45.47
2018-06-03T00:30:00.383Z,45.57
2018-06-03T00:32:29.599Z,46.93
2018-06-03T00:34:58.766Z,44.37
2018-06-03T00:37:27.985Z,46.00
2018-06-03T00:39:57.159Z,45.30
2018-06-03T00:42:27.050Z,46.60
2018-06-03T00:44:56.200Z,47.60
2018-06-03T00:47:25.535Z,49.43
2018-06-03T00:49:54.737Z,47.07
2018-06-03T00:52:23.953Z,48.43
2018-06-03T00:54:53.099Z,43.97
2018-06-03T00:57:22.297Z,47.43
2018-06-03T00:59:51.488Z,48.43
2018-06-03T01:02:20.813Z,49.83
2018-06-03T01:04:50.093Z,49.83
2018-06-03T01:07:19.364Z,45.87
2018-06-03T01:09:48.566Z,47.60
2018-06-03T01:12:17.721Z,49.50
2018-06-03T01:14:47.244Z,47.10
2018-06-03T01:17:16.470Z,47.30
2018-06-03T01:19:45.720Z,48.60
2018-06-03T01:22:15.019Z,46.90
2018-06-03T01:24:44.187Z,46.50
2018-06-03T01:27:13.485Z,47.77
2018-06-03T01:29:42.707Z,50.27
2018-06-03T01:32:11.976Z,50.33
2018-06-03T01:34:41.097Z,51.87
2018-06-03T01:37:10.373Z,48.70
2018-06-03T01:39:39.657Z,48.57
2018-06-03T01:42:08.945Z,47.57
2018-06-03T01:44:38.996Z,48.07
2018-06-03T01:47:08.241Z,51.43
2018-06-03T01:49:37.969Z,49.27
2018-06-03T01:52:07.206Z,47.00
2018-06-03T01:54:36.420Z,47.53
2018-06-03T01:57:05.876Z,51.37
2018-06-03T01:59:35.102Z,49.53
2018-06-03T02:02:04.326Z,49.50
2018-06-03T02:04:33.544Z,51.57
2018-06-03T02:07:02.792Z,48.23
2018-06-03T02:09:31.999Z,50.00
2018-06-03T02:12:01.227Z,50.10
2018-06-03T02:14:30.365Z,50.70
2018-06-03T02:16:59.596Z,48.93
2018-06-03T02:19:28.761Z,52.40
2018-06-03T02:21:57.914Z,49.17
2018-06-03T02:24:27.082Z,51.13
2018-06-03T02:26:56.602Z,48.70
2018-06-03T02:29:25.839Z,52.90
2018-06-03T02:31:55.045Z,52.20
2018-06-03T02:34:24.177Z,50.60
2018-06-03T02:36:53.373Z,51.07
2018-06-03T02:39:22.563Z,49.77
2018-06-03T02:41:51.780Z,50.27
2018-06-03T02:44:20.969Z,53.47
2018-06-03T02:46:50.388Z,52.10
2018-06-03T02:49:19.684Z,49.00
2018-06-03T02:51:48.894Z,50.00
2018-06-03T02:54:18.171Z,48.23
2018-06-03T02:56:48.026Z,49.10
2018-06-03T02:59:18.093Z,52.33
2018-06-03T03:01:47.349Z,50.30
2018-06-03T03:04:16.556Z,47.30
2018-06-03T03:06:45.715Z,51.17
2018-06-03T03:09:14.982Z,48.53
2018-06-03T03:11:44.186Z,49.70
2018-06-03T03:14:13.325Z,50.87
2018-06-03T03:16:43.291Z,49.30
2018-06-03T03:19:12.538Z,50.17
2018-06-03T03:21:41.694Z,48.50
2018-06-03T03:24:10.957Z,47.40
2018-06-03T03:26:40.175Z,45.73
2018-06-03T03:29:09.380Z,48.23
2018-06-03T03:31:38.514Z,49.23
2018-06-03T03:34:07.718Z,46.90
2018-06-03T03:36:36.876Z,45.57
2018-06-03T03:39:07.242Z,46.50
2018-06-03T03:41:36.535Z,45.13
2018-06-03T03:44:05.795Z,45.63
2018-06-03T03:46:34.970Z,44.80
2018-06-03T03:49:04.214Z,46.17
2018-06-03T03:51:33.405Z,43.83
2018-06-03T03:54:02.619Z,46.60
2018-06-03T03:56:31.798Z,43.73
2018-06-03T03:59:00.970Z,44.07
2018-06-03T04:01:30.129Z,44.30
2018-06-03T04:03:59.324Z,43.03
2018-06-03T04:06:28.523Z,43.97
2018-06-03T04:08:57.673Z,43.20
2018-06-03T04:11:26.895Z,40.90
2018-06-03T04:13:57.106Z,41.30
2018-06-03T04:16:26.514Z,38.07
2018-06-03T04:18:55.762Z,40.17
2018-06-03T04:21:24.924Z,42.40
2018-06-03T04:23:54.046Z,40.80
2018-06-03T04:26:23.187Z,40.63
2018-06-03T04:28:52.522Z,39.60
2018-06-03T04:31:21.745Z,40.10
2018-06-03T04:33:52.717Z,40.83
2018-06-03T04:36:21.978Z,39.10
2018-06-03T04:38:51.790Z,38.90
2018-06-03T04:41:21.074Z,39.87
2018-06-03T04:43:50.436Z,40.90
2018-06-03T04:46:19.680Z,41.40
2018-06-03T04:48:48.716Z,37.60
2018-06-03T04:51:18.158Z,37.20
2018-06-03T04:53:47.364Z,39.33
2018-06-03T04:56:16.658Z,37.37
2018-06-03T04:58:45.918Z,34.10
2018-06-03T05:01:15.121Z,38.27
2018-06-03T05:03:44.343Z,37.90
2018-06-03T05:06:13.648Z,40.13
2018-06-03T05:08:42.897Z,38.37
2018-06-03T05:11:12.181Z,36.87
2018-06-03T05:13:41.427Z,38.10
2018-06-03T05:16:10.666Z,36.43
2018-06-03T05:18:39.957Z,34.60
2018-06-03T05:21:09.210Z,37.37
2018-06-03T05:23:38.487Z,38.03
2018-06-03T05:26:07.671Z,38.13
2018-06-03T05:28:36.843Z,37.97
2018-06-03T05:31:05.950Z,38.27
2018-06-03T05:33:35.127Z,41.70
2018-06-03T05:36:05.025Z,39.73
2018-06-03T05:41:33.676Z,40.17
2018-06-03T05:44:02.891Z,39.90
2018-06-03T05:46:32.009Z,40.80
2018-06-03T05:49:01.173Z,41.20
2018-06-03T05:51:30.390Z,42.57
2018-06-03T05:53:59.638Z,40.80
2018-06-03T05:56:28.797Z,40.50
2018-06-03T05:58:57.998Z,39.90
2018-06-03T06:01:27.195Z,41.67
2018-06-03T06:03:56.460Z,40.93
2018-06-03T06:06:25.600Z,38.20
2018-06-03T06:08:54.767Z,39.03
2018-06-03T06:11:24.007Z,37.53
2018-06-03T06:13:53.207Z,39.47
2018-06-03T06:16:22.394Z,39.97
2018-06-03T06:18:51.797Z,38.47
2018-06-03T06:21:20.957Z,42.53
2018-06-03T06:23:50.283Z,41.80
2018-06-03T06:26:20.542Z,43.37
2018-06-03T06:28:49.785Z,43.30
2018-06-03T06:31:19.119Z,44.83
2018-06-03T06:33:48.299Z,39.67
2018-06-03T06:36:17.530Z,41.00
2018-06-03T06:38:46.719Z,42.87
2018-06-03T06:41:15.935Z,40.47
2018-06-03T06:43:45.171Z,40.73
2018-06-03T06:46:14.390Z,43.90
2018-06-03T06:48:43.528Z,43.13
2018-06-03T06:51:12.738Z,42.40
2018-06-03T06:53:41.953Z,42.97
2018-06-03T06:56:11.199Z,42.90
2018-06-03T06:58:40.658Z,41.70
2018-06-03T07:01:09.900Z,43.00
2018-06-03T07:03:39.187Z,42.50
2018-06-03T07:06:08.527Z,42.33
2018-06-03T07:08:37.697Z,39.67
2018-06-03T07:11:06.953Z,41.87
2018-06-03T07:13:36.128Z,40.00
2018-06-03T07:16:05.382Z,38.27
2018-06-03T07:18:34.706Z,41.93
2018-06-03T07:21:03.875Z,44.37
2018-06-03T07:23:33.206Z,43.20
2018-06-03T07:26:02.544Z,43.30
2018-06-03T07:28:31.777Z,42.43
2018-06-03T07:31:01.101Z,41.33
2018-06-03T07:33:30.357Z,42.10
2018-06-03T07:36:00.667Z,39.67
2018-06-03T07:38:30.142Z,42.43
2018-06-03T07:40:59.371Z,42.50
2018-06-03T07:43:28.601Z,40.67
2018-06-03T07:45:57.876Z,43.03
2018-06-03T07:48:27.154Z,42.30
2018-06-03T07:50:56.421Z,39.47
2018-06-03T07:53:25.757Z,41.83
2018-06-03T07:55:54.963Z,41.80
2018-06-03T07:58:24.109Z,41.63
2018-06-03T08:00:53.562Z,39.37
2018-06-03T08:03:22.832Z,45.37
2018-06-03T08:05:52.159Z,44.33
2018-06-03T08:08:21.412Z,41.77
2018-06-03T08:10:50.711Z,46.33
2018-06-03T08:13:19.990Z,41.80
2018-06-03T08:15:49.344Z,44.87
2018-06-03T08:18:18.625Z,44.77
2018-06-03T08:20:47.854Z,41.40
2018-06-03T08:23:17.142Z,42.37
2018-06-03T08:25:46.291Z,45.20
2018-06-03T08:28:15.460Z,46.03
2018-06-03T08:30:44.783Z,45.23
2018-06-03T08:33:14.085Z,48.27
2018-06-03T08:35:43.378Z,44.70
2018-06-03T08:40:21.292Z,44.43
2018-06-03T08:42:50.543Z,42.20
2018-06-03T08:45:19.735Z,44.07
2018-06-03T08:47:48.951Z,39.53
2018-06-03T08:50:18.329Z,40.20
2018-06-03T08:52:47.506Z,39.53
2018-06-03T08:55:16.713Z,39.17
2018-06-03T08:57:45.923Z,38.10
2018-06-03T09:00:15.128Z,38.30
2018-06-03T09:02:44.335Z,40.17
2018-06-03T09:05:13.470Z,37.40
2018-06-03T09:07:42.691Z,36.13
2018-06-03T09:10:11.923Z,35.87
2018-06-03T09:12:41.111Z,34.00
2018-06-03T09:15:10.314Z,35.47
2018-06-03T09:17:39.490Z,35.43
2018-06-03T09:20:08.729Z,34.33
2018-06-03T09:22:37.922Z,35.60
2018-06-03T09:25:07.192Z,33.57
2018-06-03T09:27:36.424Z,28.70
2018-06-03T09:30:05.944Z,31.00
2018-06-03T09:32:35.230Z,31.60
2018-06-03T09:35:04.522Z,34.03
2018-06-03T09:37:41.459Z,33.17
2018-06-03T09:40:10.765Z,36.80
2018-06-03T09:42:40.136Z,35.40
2018-06-03T09:45:09.540Z,36.27
2018-06-03T09:47:38.972Z,31.70
2018-06-03T09:50:09.134Z,32.23
2018-06-03T09:52:38.329Z,36.10
2018-06-03T09:55:07.714Z,33.83
2018-06-03T09:57:36.947Z,32.37
2018-06-03T10:00:06.216Z,35.23
2018-06-03T10:02:35.484Z,32.87
2018-06-03T10:05:04.758Z,32.33
2018-06-03T10:07:34.022Z,35.20
2018-06-03T10:10:03.359Z,35.90
2018-06-03T10:12:32.627Z,37.00
2018-06-03T10:15:01.969Z,35.83
2018-06-03T10:17:31.206Z,36.87
2018-06-03T10:20:00.541Z,35.63
2018-06-03T10:22:29.847Z,37.43
2018-06-03T10:24:59.196Z,36.37
2018-06-03T10:27:28.427Z,34.57
2018-06-03T10:29:57.687Z,37.80
2018-06-03T10:32:26.833Z,38.40
2018-06-03T10:34:56.230Z,37.57
2018-06-03T10:37:25.524Z,34.33
2018-06-03T10:39:54.659Z,34.63
2018-06-03T10:42:23.909Z,33.07
2018-06-03T10:44:53.453Z,33.33
2018-06-03T10:47:22.710Z,31.20
2018-06-03T10:49:51.969Z,30.50
2018-06-03T10:52:21.201Z,28.63
2018-06-03T10:54:50.360Z,29.30
2018-06-03T10:57:19.668Z,29.60
2018-06-03T10:59:48.948Z,28.67
2018-06-03T11:02:18.207Z,28.23
2018-06-03T11:04:47.393Z,28.10
2018-06-03T11:07:16.617Z,29.67
2018-06-03T11:09:45.888Z,29.10
2018-06-03T11:12:15.122Z,29.80
2018-06-03T11:14:44.465Z,31.63
2018-06-03T11:17:13.638Z,30.10
2018-06-03T11:19:42.940Z,29.03
2018-06-03T11:22:12.104Z,28.10
2018-06-03T11:24:41.338Z,25.30
2018-06-03T11:27:10.534Z,26.43
2018-06-03T11:29:39.698Z,26.97
2018-06-03T11:32:09.037Z,27.47
2018-06-03T11:34:38.313Z,26.33
2018-06-03T11:37:07.558Z,26.10
2018-06-03T11:39:36.857Z,27.17
2018-06-03T11:42:06.161Z,30.20
2018-06-03T11:44:35.356Z,28.37
2018-06-03T11:47:04.626Z,30.77
2018-06-03T11:49:33.793Z,27.80
2018-06-03T11:52:03.124Z,27.40
2018-06-03T11:54:32.265Z,23.73
2018-06-03T11:57:03.975Z,25.70
2018-06-03T11:59:43.670Z,25.67
2018-06-03T12:02:14.453Z,22.90
2018-06-03T12:04:43.681Z,25.13
2018-06-03T12:07:12.925Z,24.57
2018-06-03T12:09:42.126Z,23.37
2018-06-03T12:12:11.372Z,25.13
2018-06-03T12:14:40.672Z,25.13
2018-06-03T12:17:09.926Z,22.10
2018-06-03T12:19:39.113Z,21.90
2018-06-03T12:22:08.357Z,20.43
2018-06-03T12:24:37.590Z,19.80
2018-06-03T12:27:06.807Z,22.00
2018-06-03T12:29:36.066Z,20.30
2018-06-03T12:32:05.338Z,19.90
2018-06-03T12:34:34.598Z,20.93
2018-06-03T12:37:03.780Z,14.50
2018-06-03T12:39:33.598Z,14.03
2018-06-03T12:42:02.890Z,13.80
2018-06-03T12:44:32.056Z,12.00
2018-06-03T12:47:01.443Z,12.20
2018-06-03T12:49:30.947Z,12.67
2018-06-03T12:52:00.221Z,11.30
2018-06-03T12:54:30.451Z,10.17
2018-06-03T12:56:59.743Z,10.20
2018-06-03T12:59:29.111Z,9.80
2018-06-03T13:01:58.371Z,9.20
2018-06-03T13:04:27.666Z,9.10
2018-06-03T13:06:57.914Z,9.90
2018-06-03T13:09:26.962Z,9.03
2018-06-03T13:11:56.344Z,8.90
2018-06-03T13:14:25.565Z,8.60
2018-06-03T13:16:54.798Z,8.43
2018-06-03T13:19:24.141Z,8.73
2018-06-03T13:21:53.403Z,8.87
2018-06-03T13:24:22.620Z,7.40
2018-06-03T13:26:51.951Z,8.13
2018-06-03T13:29:21.284Z,7.57
2018-06-03T13:31:50.555Z,6.90
2018-06-03T13:34:19.790Z,6.30
2018-06-03T13:36:49.144Z,6.17
2018-06-03T13:39:18.343Z,5.63
2018-06-03T13:41:47.561Z,5.47
2018-06-03T13:44:16.682Z,5.40
2018-06-03T13:46:45.973Z,5.00
2018-06-03T13:49:15.185Z,5.10
2018-06-03T13:51:44.443Z,5.10
2018-06-03T13:54:13.633Z,5.27
2018-06-03T13:56:42.779Z,5.97
2018-06-03T13:59:11.978Z,4.87
2018-06-03T14:01:41.214Z,5.47
2018-06-03T14:04:10.493Z,5.50
2018-06-03T14:06:39.696Z,5.13
2018-06-03T14:09:08.953Z,4.60
2018-06-03T14:11:38.253Z,4.83
2018-06-03T14:14:07.585Z,5.00
2018-06-03T14:16:36.764Z,4.70
2018-06-03T14:19:06.053Z,4.53
2018-06-03T14:21:35.302Z,5.50
2018-06-03T14:24:04.552Z,3.90
2018-06-03T14:26:33.847Z,4.73
2018-06-03T14:29:03.172Z,4.63
2018-06-03T14:31:32.463Z,4.70
2018-06-03T14:34:01.794Z,5.10
2018-06-03T14:36:31.063Z,4.80
2018-06-03T14:39:00.141Z,5.03
2018-06-03T14:41:29.466Z,5.40
2018-06-03T14:43:58.743Z,5.80
2018-06-03T14:46:27.950Z,4.70
2018-06-03T14:48:57.183Z,3.90
2018-06-03T14:51:26.450Z,5.30
2018-06-03T14:53:55.677Z,4.90
2018-06-03T14:56:24.902Z,4.20
2018-06-03T14:58:54.021Z,3.83
2018-06-03T15:01:23.333Z,4.03
2018-06-03T15:03:52.582Z,4.00
2018-06-03T15:06:21.678Z,4.83
2018-06-03T15:08:50.971Z,4.50
2018-06-03T15:11:20.215Z,5.20
2018-06-03T15:13:49.426Z,4.60
2018-06-03T15:16:18.640Z,4.67
2018-06-03T15:18:47.730Z,4.40
2018-06-03T15:21:16.898Z,4.10
2018-06-03T15:23:46.203Z,4.20
2018-06-03T15:26:15.515Z,4.40
2018-06-03T15:28:44.802Z,4.70
2018-06-03T15:31:14.027Z,5.00
2018-06-03T15:33:43.271Z,5.87
2018-06-03T15:36:12.601Z,6.07
2018-06-03T15:38:41.863Z,6.20
2018-06-03T15:41:11.103Z,6.63
2018-06-03T15:43:40.394Z,6.63
2018-06-03T15:46:10.285Z,6.63
2018-06-03T15:48:39.446Z,6.10
2018-06-03T15:51:08.796Z,5.63
2018-06-03T15:53:38.198Z,6.20
2018-06-03T15:56:07.558Z,6.10
2018-06-03T15:58:37.484Z,5.17
2018-06-03T16:01:06.647Z,5.80
2018-06-03T16:03:35.863Z,5.40
2018-06-03T16:06:05.055Z,5.87
2018-06-03T16:08:34.290Z,5.33
2018-06-03T16:11:03.458Z,4.87
2018-06-03T16:13:32.705Z,5.70
2018-06-03T16:16:01.990Z,5.73
2018-06-03T16:18:31.240Z,5.50
2018-06-03T16:21:00.550Z,5.67
2018-06-03T16:23:29.729Z,5.30
2018-06-03T16:25:59.014Z,4.93
2018-06-03T16:28:28.245Z,5.57
2018-06-03T16:30:57.614Z,5.13
2018-06-03T16:33:26.911Z,5.50
2018-06-03T16:35:56.074Z,5.50
2018-06-03T16:38:25.422Z,4.37
2018-06-03T16:40:54.602Z,5.90
2018-06-03T16:43:23.875Z,5.13
2018-06-03T16:45:53.033Z,5.17
2018-06-03T16:48:22.179Z,6.30
2018-06-03T16:50:51.437Z,5.93
2018-06-03T16:53:20.637Z,5.40
2018-06-03T16:55:49.908Z,6.70
2018-06-03T16:58:19.067Z,6.53
2018-06-03T17:00:48.355Z,8.20
2018-06-03T17:03:17.644Z,7.43
2018-06-03T17:05:46.938Z,7.40
2018-06-03T17:08:16.125Z,7.27
2018-06-03T17:10:45.342Z,7.03
2018-06-03T17:13:14.644Z,6.70
2018-06-03T17:15:43.921Z,6.40
2018-06-03T17:18:13.226Z,6.40
2018-06-03T17:20:42.460Z,6.67
2018-06-03T17:23:11.745Z,7.30
2018-06-03T17:25:40.975Z,7.63
2018-06-03T17:28:10.186Z,8.60
2018-06-03T17:30:39.386Z,8.10
2018-06-03T17:33:08.642Z,7.83
2018-06-03T17:35:37.846Z,8.80
2018-06-03T17:38:08.643Z,8.03
2018-06-03T17:40:37.927Z,7.93
2018-06-03T17:43:07.180Z,9.00
2018-06-03T17:45:36.496Z,9.97
2018-06-03T17:48:05.961Z,10.57
2018-06-03T17:50:35.740Z,9.07
2018-06-03T17:53:05.602Z,9.80
2018-06-03T17:55:34.910Z,10.03
2018-06-03T17:58:04.806Z,9.57
2018-06-03T18:00:34.075Z,8.77
2018-06-03T18:03:03.364Z,9.63
2018-06-03T18:05:47.719Z,10.53
2018-06-03T18:08:16.920Z,16.37
2018-06-03T18:10:46.266Z,14.00
2018-06-03T18:13:15.547Z,11.87
2018-06-03T18:15:44.796Z,10.30
2018-06-03T18:18:14.040Z,14.37
2018-06-03T18:20:43.367Z,11.63
2018-06-03T18:23:12.667Z,12.57
2018-06-03T18:25:41.924Z,13.90
2018-06-03T18:28:11.248Z,11.40
2018-06-03T18:30:42.587Z,12.87
2018-06-03T18:33:12.085Z,13.53
2018-06-03T18:35:41.425Z,13.40
2018-06-03T18:38:10.848Z,27.60
2018-06-03T18:40:40.068Z,16.03
2018-06-03T18:43:09.319Z,15.70
2018-06-03T18:45:38.564Z,15.00
2018-06-03T18:48:07.760Z,13.60
2018-06-03T18:50:37.011Z,13.50
2018-06-03T18:53:06.697Z,13.60
2018-06-03T18:55:35.747Z,13.90
2018-06-03T18:58:05.172Z,13.97
2018-06-03T19:00:34.483Z,14.73
2018-06-03T19:03:03.840Z,15.43
2018-06-03T19:05:33.049Z,15.73
2018-06-03T19:08:02.452Z,16.37
2018-06-03T19:10:31.726Z,16.90
2018-06-03T19:13:01.034Z,18.77
2018-06-03T19:15:30.300Z,16.90
2018-06-03T19:17:59.551Z,17.73
2018-06-03T19:20:28.811Z,18.13
2018-06-03T19:22:58.636Z,17.33
2018-06-03T19:25:27.972Z,21.20
2018-06-03T19:27:57.338Z,18.63
2018-06-03T19:30:26.690Z,22.60
2018-06-03T19:32:56.045Z,19.70
2018-06-03T19:35:25.315Z,18.30
2018-06-03T19:37:54.698Z,16.63
2018-06-03T19:40:24.074Z,19.33
2018-06-03T19:42:53.440Z,19.77
2018-06-03T19:45:22.749Z,19.90
2018-06-03T19:47:52.057Z,21.50
2018-06-03T19:50:21.400Z,21.23
2018-06-03T19:52:50.796Z,20.03
2018-06-03T19:55:20.156Z,19.90
2018-06-03T19:57:49.421Z,21.70
2018-06-03T20:00:18.746Z,22.23
2018-06-03T20:02:48.020Z,24.77
2018-06-03T20:05:17.945Z,22.60
2018-06-03T20:07:47.255Z,18.83
2018-06-03T20:10:16.489Z,19.60
2018-06-03T20:12:45.750Z,19.23
2018-06-03T20:15:15.087Z,20.03
2018-06-03T20:17:44.570Z,20.20
2018-06-03T20:20:13.847Z,18.87
2018-06-03T20:22:43.125Z,22.30
2018-06-03T20:25:12.436Z,21.60
2018-06-03T20:27:42.026Z,20.33
2018-06-03T20:30:11.367Z,23.50
2018-06-03T20:32:40.717Z,23.63
2018-06-03T20:35:10.034Z,21.43
2018-06-03T20:37:39.409Z,26.60
2018-06-03T20:40:08.787Z,22.40
2018-06-03T20:42:38.223Z,22.23
2018-06-03T20:45:07.643Z,20.50
2018-06-03T20:47:36.917Z,25.00
2018-06-03T20:50:06.305Z,22.37
2018-06-03T20:52:35.578Z,22.87
2018-06-03T20:57:48.984Z,22.97
2018-06-03T21:00:19.123Z,22.87
2018-06-03T21:02:48.494Z,20.97
2018-06-03T21:05:17.790Z,20.20
2018-06-03T21:07:47.100Z,23.00
2018-06-03T21:10:16.334Z,21.83
2018-06-03T21:12:45.675Z,26.30
2018-06-03T21:15:14.922Z,22.57
2018-06-03T21:17:44.314Z,22.43
2018-06-03T21:20:13.547Z,22.80
2018-06-03T21:22:43.422Z,21.47
2018-06-03T21:25:12.789Z,22.17
2018-06-03T21:27:42.084Z,21.57
2018-06-03T21:30:11.334Z,20.77
2018-06-03T21:32:40.580Z,22.73
2018-06-03T21:35:09.796Z,21.60
2018-06-03T21:37:39.139Z,20.40
2018-06-03T21:40:08.385Z,21.97
2018-06-03T21:42:37.764Z,22.43
2018-06-03T21:45:07.093Z,22.17
2018-06-03T21:47:36.360Z,23.63
2018-06-03T21:50:05.546Z,24.67
2018-06-03T21:52:34.803Z,21.60
2018-06-03T21:55:04.020Z,21.63
2018-06-03T21:57:33.215Z,21.87
2018-06-03T22:00:02.480Z,23.10
2018-06-03T22:02:31.745Z,25.10
2018-06-03T22:05:01.051Z,25.30
2018-06-03T22:07:30.323Z,25.03
2018-06-03T22:09:59.698Z,23.00
2018-06-03T22:12:28.951Z,24.03
2018-06-03T22:14:58.293Z,22.80
2018-06-03T22:17:27.499Z,23.70
2018-06-03T22:19:56.706Z,25.00
2018-06-03T22:22:27.281Z,23.70
2018-06-03T22:24:57.222Z,23.50
2018-06-03T22:27:26.563Z,23.97
2018-06-03T22:29:55.783Z,24.33
2018-06-03T22:32:25.074Z,26.60
2018-06-03T22:34:54.546Z,25.43
2018-06-03T22:37:23.925Z,27.07
2018-06-03T22:39:53.142Z,25.10
2018-06-03T22:42:22.444Z,24.00
2018-06-03T22:44:51.686Z,26.23
2018-06-03T22:47:20.953Z,26.07
2018-06-03T22:49:50.215Z,25.40
2018-06-03T22:52:19.399Z,27.13
2018-06-03T22:54:48.682Z,25.93
2018-06-03T22:57:51.594Z,27.40
2018-06-03T23:00:29.363Z,25.27
2018-06-03T23:03:04.078Z,25.77
2018-06-03T23:05:33.432Z,26.63
2018-06-03T23:08:02.807Z,27.57
2018-06-03T23:10:39.411Z,25.80
2018-06-03T23:13:09.625Z,26.40
2018-06-03T23:15:38.907Z,26.57
2018-06-03T23:18:08.806Z,28.17
2018-06-03T23:20:38.084Z,28.40
2018-06-03T23:23:07.331Z,29.17
2018-06-03T23:25:36.529Z,30.30
2018-06-03T23:28:05.728Z,28.37
2018-06-03T23:30:34.996Z,28.47
2018-06-03T23:33:04.242Z,29.30
2018-06-03T23:35:33.403Z,30.57
2018-06-03T23:38:03.332Z,27.57
2018-06-03T23:40:32.609Z,29.63
2018-06-03T23:43:01.905Z,29.30
2018-06-03T23:45:31.105Z,27.83
2018-06-03T23:48:00.410Z,28.40
2018-06-03T23:50:29.600Z,28.90
2018-06-03T23:52:58.935Z,27.80
2018-06-03T23:55:28.166Z,28.73
2018-06-03T23:57:57.308Z,26.93
